Watonga, Oklahoma
Current Conditions -  °F | °C
As of 6:35 PM on Saturday 25 Oct 2014 (Local Time) from KJWG Reporting Station
Clear Clear  
Wind Chill: 82°   Ceiling: Unl
Heat Index: 82°   Visibility: 10mi
Dew Point: 58°   Wind: 5mph
Humidity: 44%   Direction: 170°S
Pressure: 30.02"   Gusts: NA
Location:  35.84°N, 98.41°W
Report Text: KJWG 252335Z AUTO 17004KT 10SM CLR 28/15 A3002 RMK AO2 T02800147
Loading
Personal Weather Stations






























Interactive Weather Map
Tropical Storm Tracking
New forecast layout! Learn more

10-Day Weather Forecast

Advertisements
Track Severe Weather on mobile